createdAt,value
2022-12-15T00:02:18.348Z,97267.78
2022-12-15T00:05:04.310Z,97279.38
2022-12-15T00:07:49.956Z,97279.38
2022-12-15T00:10:35.571Z,97278.84
2022-12-15T00:13:21.244Z,97269.81
2022-12-15T00:16:06.992Z,97262.31
2022-12-15T00:18:52.944Z,97270.91
2022-12-15T00:21:38.738Z,97275.44
2022-12-15T00:24:24.527Z,97285.91
2022-12-15T00:27:10.324Z,97286.88
2022-12-15T00:29:56.390Z,97290.44
2022-12-15T00:32:42.206Z,97293.44
2022-12-15T00:35:27.868Z,97299.44
2022-12-15T00:38:13.746Z,97309.69
2022-12-15T00:40:40.812Z,97307.22
2022-12-15T00:43:12.024Z,97296.72
2022-12-15T00:45:58.159Z,97297.13
2022-12-15T00:48:25.220Z,97295.75
2022-12-15T00:50:52.336Z,97299.81
2022-12-15T00:53:38.353Z,97311.31
2022-12-15T00:56:23.850Z,97321.41
2022-12-15T00:59:09.645Z,97322.25
2022-12-15T01:01:55.427Z,97342.44
2022-12-15T01:04:41.285Z,97341.47
2022-12-15T01:07:26.990Z,97340.50
2022-12-15T01:10:12.668Z,97346.91
2022-12-15T01:12:58.342Z,97340.09
2022-12-15T01:15:43.957Z,97337.66
2022-12-15T01:18:29.655Z,97348.03
2022-12-15T01:20:56.817Z,97360.03
2022-12-15T01:23:23.895Z,97361.00
2022-12-15T01:28:22.343Z,97357.69
2022-12-15T01:30:49.573Z,97351.69
2022-12-15T01:33:16.719Z,97367.25
2022-12-15T01:35:43.813Z,97376.91
2022-12-15T01:38:10.894Z,97381.28
2022-12-15T01:40:47.164Z,97383.88
2022-12-15T01:43:14.351Z,97385.91
2022-12-15T01:45:41.466Z,97380.06
2022-12-15T01:48:08.584Z,97386.06
2022-12-15T01:50:35.649Z,97387.84
2022-12-15T01:53:02.702Z,97392.31
2022-12-15T01:55:29.764Z,97401.88
2022-12-15T01:57:56.832Z,97403.66
2022-12-15T02:00:23.897Z,97398.69
2022-12-15T02:02:51.072Z,97408.91
2022-12-15T02:05:18.222Z,97408.25
2022-12-15T02:07:45.282Z,97404.69
2022-12-15T02:10:12.466Z,97398.69
2022-12-15T02:12:39.563Z,97401.13
2022-12-15T02:15:06.808Z,97401.53
2022-12-15T02:17:34.375Z,97410.97
2022-12-15T02:20:01.483Z,97417.91
2022-12-15T02:22:28.571Z,97428.16
2022-12-15T02:24:55.643Z,97431.16
2022-12-15T02:27:22.840Z,97437.16
2022-12-15T02:29:49.936Z,97426.91
2022-12-15T02:32:17.027Z,97430.31
2022-12-15T02:34:44.100Z,97433.19
2022-12-15T02:37:11.220Z,97425.41
2022-12-15T02:39:38.272Z,97430.69
2022-12-15T02:42:05.325Z,97429.63
2022-12-15T02:44:32.390Z,97424.56
2022-12-15T02:46:59.455Z,97429.63
2022-12-15T02:49:26.501Z,97429.75
2022-12-15T02:51:53.571Z,97431.50
2022-12-15T02:54:20.634Z,97430.13
2022-12-15T02:56:47.701Z,97427.44
2022-12-15T02:59:14.823Z,97435.22
2022-12-15T03:01:42.085Z,97430.28
2022-12-15T03:04:09.354Z,97427.69
2022-12-15T03:06:36.409Z,97439.13
2022-12-15T03:09:03.463Z,97432.16
2022-12-15T03:11:30.564Z,97439.81
2022-12-15T03:13:57.625Z,97439.94
2022-12-15T03:16:24.760Z,97435.84
2022-12-15T03:18:51.858Z,97440.19
2022-12-15T03:21:18.938Z,97452.31
2022-12-15T03:23:46.014Z,97451.66
2022-12-15T03:26:13.074Z,97452.72
2022-12-15T03:28:40.178Z,97458.72
2022-12-15T03:31:07.299Z,97456.13
2022-12-15T03:33:34.841Z,97463.34
2022-12-15T03:36:02.267Z,97467.31
2022-12-15T03:38:29.376Z,97461.44
2022-12-15T03:40:56.428Z,97451.19
2022-12-15T03:43:23.517Z,97452.28
2022-12-15T03:45:50.617Z,97452.84
2022-12-15T03:48:17.739Z,97452.84
2022-12-15T03:50:44.820Z,97458.16
2022-12-15T03:53:11.888Z,97456.66
2022-12-15T03:55:38.966Z,97460.16
2022-12-15T03:58:06.051Z,97455.69
2022-12-15T04:00:33.164Z,97459.34
2022-12-15T04:03:00.330Z,97456.66
2022-12-15T04:05:27.502Z,97473.25
2022-12-15T04:07:54.570Z,97464.69
2022-12-15T04:10:21.630Z,97459.34
2022-12-15T04:12:48.725Z,97458.69
2022-12-15T04:15:15.851Z,97457.72
2022-12-15T04:17:43.339Z,97461.28
2022-12-15T04:20:10.482Z,97470.09
2022-12-15T04:22:37.623Z,97482.09
2022-12-15T04:25:23.446Z,97492.47
2022-12-15T04:28:09.351Z,97494.25
2022-12-15T04:30:55.411Z,97482.34
2022-12-15T04:33:41.151Z,97482.34
2022-12-15T04:36:27.004Z,97485.91
2022-12-15T04:39:12.961Z,97477.56
2022-12-15T04:41:58.881Z,97486.84
2022-12-15T04:44:44.416Z,97487.66
2022-12-15T04:47:36.133Z,97493.66
2022-12-15T04:50:22.018Z,97493.00
2022-12-15T04:53:07.945Z,97500.63
2022-12-15T04:55:53.637Z,97509.47
2022-12-15T04:58:39.237Z,97518.31
2022-12-15T05:01:25.058Z,97520.78
2022-12-15T05:04:11.125Z,97527.97
2022-12-15T05:06:56.974Z,97540.94
2022-12-15T05:09:42.635Z,97528.22
2022-12-15T05:12:28.256Z,97531.53
2022-12-15T05:15:13.925Z,97524.72
2022-12-15T05:17:59.746Z,97524.44
2022-12-15T05:20:45.698Z,97515.16
2022-12-15T05:23:35.693Z,97524.00
2022-12-15T05:26:21.351Z,97532.72
2022-12-15T05:29:07.332Z,97534.34
2022-12-15T05:31:52.613Z,97544.13
2022-12-15T05:34:19.933Z,97544.03
2022-12-15T05:36:47.038Z,97550.84
2022-12-15T05:39:14.498Z,97544.13
2022-12-15T05:41:41.623Z,97554.63
2022-12-15T05:44:08.700Z,97559.81
2022-12-15T05:46:35.845Z,97571.94
2022-12-15T05:49:03.055Z,97567.44
2022-12-15T05:51:30.105Z,97560.88
2022-12-15T05:53:57.211Z,97569.47
2022-12-15T05:56:24.338Z,97561.69
2022-12-15T05:58:51.406Z,97561.69
2022-12-15T06:01:18.553Z,97561.59
2022-12-15T06:03:45.812Z,97562.66
2022-12-15T06:06:12.890Z,97563.59
2022-12-15T06:08:39.950Z,97551.91
2022-12-15T06:11:07.010Z,97561.81
2022-12-15T06:13:37.132Z,97573.00
2022-12-15T06:16:04.330Z,97578.19
2022-12-15T06:18:31.460Z,97578.19
2022-12-15T06:20:58.625Z,97583.47
2022-12-15T06:23:25.755Z,97585.00
2022-12-15T06:25:52.818Z,97579.00
2022-12-15T06:28:23.947Z,97568.41
2022-12-15T06:30:52.157Z,97572.19
2022-12-15T06:33:19.302Z,97575.84
2022-12-15T06:35:46.366Z,97580.34
2022-12-15T06:38:13.498Z,97588.66
2022-12-15T06:40:40.563Z,97590.66
2022-12-15T06:43:07.728Z,97591.50
2022-12-15T06:45:34.823Z,97585.47
2022-12-15T06:48:02.042Z,97588.06
2022-12-15T06:50:29.128Z,97591.34
2022-12-15T06:52:56.179Z,97599.00
2022-12-15T06:55:23.368Z,97609.47
2022-12-15T06:57:50.428Z,97603.13
2022-12-15T07:00:17.531Z,97591.69
2022-12-15T07:02:44.704Z,97584.16
2022-12-15T07:05:17.308Z,97596.16
2022-12-15T07:07:44.391Z,97602.28
2022-12-15T07:10:11.904Z,97605.69
2022-12-15T07:12:39.008Z,97607.34
2022-12-15T07:15:06.411Z,97609.81
2022-12-15T07:17:33.482Z,97622.78
2022-12-15T07:20:00.566Z,97619.94
2022-12-15T07:22:27.622Z,97626.78
2022-12-15T07:24:54.931Z,97633.00
2022-12-15T07:27:22.019Z,97636.31
2022-12-15T07:29:49.169Z,97643.84
2022-12-15T07:32:16.219Z,97645.34
2022-12-15T07:34:43.291Z,97655.63
2022-12-15T07:37:10.374Z,97652.44
2022-12-15T07:39:37.435Z,97647.47
2022-12-15T07:42:04.492Z,97639.69
2022-12-15T07:44:32.028Z,97634.38
2022-12-15T07:46:59.107Z,97633.69
2022-12-15T07:49:26.194Z,97630.88
2022-12-15T07:51:53.278Z,97639.09
2022-12-15T07:54:20.628Z,97639.75
2022-12-15T07:56:50.272Z,97642.34
2022-12-15T07:59:17.806Z,97633.66
2022-12-15T08:01:45.197Z,97638.84
2022-12-15T08:04:12.410Z,97645.41
2022-12-15T08:06:39.490Z,97652.25
2022-12-15T08:09:06.578Z,97657.31
2022-12-15T08:11:36.659Z,97658.16
2022-12-15T08:14:05.701Z,97657.66
2022-12-15T08:16:36.816Z,97663.63
2022-12-15T08:19:07.515Z,97659.69
2022-12-15T08:21:34.759Z,97662.25
2022-12-15T08:24:01.948Z,97669.41
2022-12-15T08:26:31.015Z,97668.66
2022-12-15T08:29:17.350Z,97666.00
2022-12-15T08:31:45.024Z,97672.97
2022-12-15T08:34:12.224Z,97675.25
2022-12-15T08:36:39.330Z,97683.53
2022-12-15T08:39:06.423Z,97686.88
2022-12-15T08:41:33.538Z,97691.00
2022-12-15T08:44:00.638Z,97688.97
2022-12-15T08:46:27.846Z,97686.28
2022-12-15T08:48:54.977Z,97688.06
2022-12-15T08:51:22.040Z,97684.53
2022-12-15T08:53:49.575Z,97692.94
2022-12-15T08:56:17.178Z,97698.03
2022-12-15T08:58:44.305Z,97704.72
2022-12-15T09:01:12.948Z,97712.88
2022-12-15T09:03:42.019Z,97715.84
2022-12-15T09:06:09.200Z,97704.97
2022-12-15T09:08:36.281Z,97706.25
2022-12-15T09:11:03.353Z,97712.56
2022-12-15T09:13:30.845Z,97713.50
2022-12-15T09:16:13.484Z,97718.28
2022-12-15T09:18:40.730Z,97724.34
2022-12-15T09:21:07.870Z,97734.19
2022-12-15T09:23:35.547Z,97731.03
2022-12-15T09:26:03.017Z,97734.91
2022-12-15T09:28:30.090Z,97738.06
2022-12-15T09:30:57.215Z,97744.22
2022-12-15T09:33:24.447Z,97739.59
2022-12-15T09:35:51.590Z,97737.41
2022-12-15T09:38:18.667Z,97743.00
2022-12-15T09:40:45.757Z,97751.31
2022-12-15T09:43:33.828Z,97743.34
2022-12-15T09:46:01.372Z,97728.31
2022-12-15T09:48:28.434Z,97724.91
2022-12-15T09:50:55.485Z,97723.84
2022-12-15T09:53:53.696Z,97712.63
2022-12-15T09:56:09.622Z,97691.16
2022-12-15T09:58:36.816Z,97685.53
2022-12-15T10:01:04.120Z,97686.66
2022-12-15T10:03:32.067Z,97696.09
2022-12-15T10:06:16.671Z,97700.31
2022-12-15T10:08:44.796Z,97704.03
2022-12-15T10:11:12.450Z,97700.75
2022-12-15T10:13:39.664Z,97706.88
2022-12-15T10:16:07.153Z,97707.28
2022-12-15T10:18:34.282Z,97711.25
2022-12-15T10:21:01.735Z,97698.00
2022-12-15T10:23:29.563Z,97702.63
2022-12-15T10:25:56.962Z,97712.38
2022-12-15T10:28:24.035Z,97705.63
2022-12-15T10:30:51.203Z,97705.38
2022-12-15T10:33:21.484Z,97703.59
2022-12-15T10:35:48.626Z,97699.91
2022-12-15T10:38:15.720Z,97693.59
2022-12-15T10:40:42.842Z,97697.59
2022-12-15T10:43:09.908Z,97692.81
2022-12-15T10:45:37.001Z,97685.41
2022-12-15T10:48:06.631Z,97675.31
2022-12-15T10:50:33.890Z,97670.22
2022-12-15T10:53:00.994Z,97659.81
2022-12-15T10:55:28.065Z,97644.91
2022-12-15T10:57:55.181Z,97644.09
2022-12-15T11:00:25.066Z,97642.97
2022-12-15T11:02:52.415Z,97637.78
2022-12-15T11:05:19.704Z,97642.16
2022-12-15T11:07:46.828Z,97631.50
2022-12-15T11:10:14.974Z,97630.69
2022-12-15T11:15:41.810Z,97625.75
2022-12-15T11:18:11.335Z,97633.81
2022-12-15T11:20:38.607Z,97643.41
2022-12-15T11:23:05.723Z,97641.78
2022-12-15T11:25:32.863Z,97631.38
2022-12-15T11:27:59.922Z,97629.47
2022-12-15T11:30:27.030Z,97629.44
2022-12-15T11:32:54.227Z,97638.75
2022-12-15T11:35:22.352Z,97630.41
2022-12-15T11:37:49.479Z,97631.50
2022-12-15T11:40:17.550Z,97628.34
2022-12-15T11:42:44.630Z,97631.22
2022-12-15T11:45:12.447Z,97635.47
2022-12-15T11:47:40.842Z,97636.97
2022-12-15T11:50:07.930Z,97641.38
2022-12-15T11:52:35.027Z,97626.41
2022-12-15T11:55:02.108Z,97626.84
2022-12-15T11:57:29.226Z,97621.63
2022-12-15T11:59:56.696Z,97608.50
2022-12-15T12:02:23.894Z,97607.56
2022-12-15T12:04:51.097Z,97607.69
2022-12-15T12:07:18.274Z,97605.91
2022-12-15T12:09:45.344Z,97605.50
2022-12-15T12:12:16.197Z,97611.09
2022-12-15T12:14:43.284Z,97616.31
2022-12-15T12:17:10.337Z,97615.22
2022-12-15T12:19:37.496Z,97613.97
2022-12-15T12:22:04.603Z,97602.47
2022-12-15T12:24:31.723Z,97593.19
2022-12-15T12:26:58.927Z,97600.84
2022-12-15T12:29:26.009Z,97600.81
2022-12-15T12:31:53.199Z,97593.41
2022-12-15T12:34:21.029Z,97599.31
2022-12-15T12:36:48.980Z,97588.91
2022-12-15T12:39:16.196Z,97590.84
2022-12-15T12:41:43.308Z,97586.72
2022-12-15T12:44:10.379Z,97590.97
2022-12-15T12:46:37.472Z,97585.50
2022-12-15T12:49:04.598Z,97581.38
2022-12-15T12:51:31.716Z,97583.97
2022-12-15T12:53:58.888Z,97588.38
2022-12-15T12:56:26.045Z,97587.94
2022-12-15T12:58:53.180Z,97583.00
2022-12-15T13:01:20.594Z,97587.56
2022-12-15T13:03:48.275Z,97584.41
2022-12-15T13:06:16.110Z,97582.88
2022-12-15T13:08:43.170Z,97577.56
2022-12-15T13:11:10.564Z,97571.94
2022-12-15T13:13:37.711Z,97554.66
2022-12-15T13:16:04.787Z,97547.28
2022-12-15T13:18:32.263Z,97541.53
2022-12-15T13:20:59.911Z,97519.88
2022-12-15T13:23:27.569Z,97516.34
2022-12-15T13:25:56.261Z,97518.81
2022-12-15T13:28:23.622Z,97521.81
2022-12-15T13:30:50.790Z,97524.56
2022-12-15T13:33:17.906Z,97521.97
2022-12-15T13:35:44.978Z,97521.44
2022-12-15T13:38:12.447Z,97511.84
2022-12-15T13:40:39.558Z,97506.03
2022-12-15T13:43:06.641Z,97509.78
2022-12-15T13:45:35.952Z,97513.72
2022-12-15T13:48:03.108Z,97515.09
2022-12-15T13:50:30.189Z,97510.31
2022-12-15T13:55:44.351Z,97518.66
2022-12-15T13:58:11.414Z,97514.41
2022-12-15T14:00:38.477Z,97517.16
2022-12-15T14:03:06.838Z,97519.59
2022-12-15T14:05:34.013Z,97515.53
2022-12-15T14:08:01.116Z,97525.78
2022-12-15T14:10:28.254Z,97524.69
2022-12-15T14:12:55.318Z,97518.66
2022-12-15T14:15:22.453Z,97520.56
2022-12-15T14:17:49.520Z,97516.34
2022-12-15T14:20:16.592Z,97510.16
2022-12-15T14:22:43.679Z,97508.09
2022-12-15T14:25:10.760Z,97516.44
2022-12-15T14:27:37.907Z,97510.69
2022-12-15T14:30:06.017Z,97501.66
2022-12-15T14:32:33.076Z,97506.44
2022-12-15T14:35:00.161Z,97511.09
2022-12-15T14:37:27.234Z,97508.78
2022-12-15T14:39:54.303Z,97516.59
2022-12-15T14:42:21.438Z,97515.22
2022-12-15T14:44:51.334Z,97510.41
2022-12-15T14:47:21.333Z,97514.81
2022-12-15T14:49:48.798Z,97514.28
2022-12-15T14:52:18.330Z,97526.31
2022-12-15T14:54:45.456Z,97525.50
2022-12-15T14:57:12.769Z,97533.84
2022-12-15T14:59:40.166Z,97531.00
2022-12-15T15:02:07.479Z,97534.25
2022-12-15T15:03:07.668Z,97517.00
2022-12-15T15:03:10.065Z,97636.97
2022-12-15T15:04:38.283Z,97527.28
2022-12-15T15:07:05.419Z,97523.56
2022-12-15T15:09:32.554Z,97527.53
2022-12-15T15:11:59.640Z,97522.47
2022-12-15T15:14:26.853Z,97524.00
2022-12-15T15:16:53.960Z,97520.94
2022-12-15T15:19:21.163Z,97522.78
2022-12-15T15:21:48.243Z,97519.66
2022-12-15T15:24:15.363Z,97515.97
2022-12-15T15:26:43.249Z,97503.66
2022-12-15T15:29:10.608Z,97500.94
2022-12-15T15:31:41.398Z,97500.09
2022-12-15T15:34:09.118Z,97506.69
2022-12-15T15:36:36.428Z,97499.69
2022-12-15T15:39:03.506Z,97503.00
2022-12-15T15:41:30.667Z,97500.53
2022-12-15T15:44:00.949Z,97505.31
2022-12-15T15:46:28.060Z,97504.78
2022-12-15T15:48:55.318Z,97505.59
2022-12-15T15:51:22.393Z,97513.66
2022-12-15T15:53:49.538Z,97508.88
2022-12-15T15:56:16.626Z,97508.19
2022-12-15T15:58:46.738Z,97503.38
2022-12-15T16:01:13.959Z,97503.94
2022-12-15T16:03:41.220Z,97501.59
2022-12-15T16:06:08.454Z,97508.44
2022-12-15T16:08:35.979Z,97505.00
2022-12-15T16:11:03.235Z,97506.69
2022-12-15T16:13:30.296Z,97501.22
2022-12-15T16:15:57.491Z,97508.03
2022-12-15T16:18:24.630Z,97511.47
2022-12-15T16:20:51.691Z,97511.19
2022-12-15T16:23:18.770Z,97514.47
2022-12-15T16:25:50.627Z,97514.47
2022-12-15T16:28:18.143Z,97505.88
2022-12-15T16:30:45.420Z,97505.59
2022-12-15T16:33:12.518Z,97495.84
2022-12-15T16:35:39.592Z,97486.97
2022-12-15T16:38:06.709Z,97495.03
2022-12-15T16:40:33.778Z,97502.03
2022-12-15T16:43:00.875Z,97500.38
2022-12-15T16:45:27.948Z,97505.59
2022-12-15T16:47:55.706Z,97493.53
2022-12-15T16:50:22.907Z,97492.72
2022-12-15T16:52:49.998Z,97482.19
2022-12-15T16:55:17.161Z,97489.28
2022-12-15T16:57:44.266Z,97477.94
2022-12-15T17:00:11.329Z,97472.34
2022-12-15T17:02:40.097Z,97465.63
2022-12-15T17:05:07.336Z,97475.63
2022-12-15T17:07:34.417Z,97474.41
2022-12-15T17:10:02.195Z,97464.53
2022-12-15T17:12:30.169Z,97464.97
2022-12-15T17:14:58.433Z,97472.50
2022-12-15T17:17:25.549Z,97479.88
2022-12-15T17:20:27.469Z,97482.88
2022-12-15T17:22:40.232Z,97480.28
2022-12-15T17:25:07.355Z,97487.13
2022-12-15T17:27:34.641Z,97488.88
2022-12-15T17:30:01.903Z,97493.41
2022-12-15T17:32:29.118Z,97492.00
2022-12-15T17:34:56.193Z,97491.47
2022-12-15T17:37:26.957Z,97494.06
2022-12-15T17:39:56.310Z,97488.44
2022-12-15T17:42:23.439Z,97477.19
2022-12-15T17:44:51.638Z,97475.84
2022-12-15T17:47:19.009Z,97467.19
2022-12-15T17:49:47.323Z,97459.81
2022-12-15T17:52:14.454Z,97457.22
2022-12-15T17:54:41.583Z,97453.47
2022-12-15T17:57:08.759Z,97447.03
2022-12-15T17:59:35.858Z,97462.91
2022-12-15T18:02:03.115Z,97450.03
2022-12-15T18:04:31.354Z,97444.41
2022-12-15T18:07:01.911Z,97439.47
2022-12-15T18:09:29.632Z,97430.84
2022-12-15T18:11:56.699Z,97426.19
2022-12-15T18:14:23.914Z,97431.75
2022-12-15T18:16:51.029Z,97426.72
2022-12-15T18:19:18.087Z,97441.47
2022-12-15T18:21:45.180Z,97434.22
2022-12-15T18:24:12.234Z,97422.69
2022-12-15T18:26:39.394Z,97417.06
2022-12-15T18:29:06.525Z,97415.34
2022-12-15T18:31:33.738Z,97409.97
2022-12-15T18:34:04.350Z,97406.28
2022-12-15T18:36:31.801Z,97398.31
2022-12-15T18:38:59.119Z,97396.22
2022-12-15T18:41:26.177Z,97403.94
2022-12-15T18:43:56.324Z,97403.34
2022-12-15T18:46:23.419Z,97402.09
2022-12-15T18:48:50.535Z,97403.66
2022-12-15T18:51:17.685Z,97406.63
2022-12-15T18:53:44.841Z,97409.78
2022-12-15T18:56:12.005Z,97412.97
2022-12-15T18:58:42.122Z,97413.72
2022-12-15T19:01:09.312Z,97409.13
2022-12-15T19:03:37.087Z,97402.88
2022-12-15T19:06:04.459Z,97391.63
2022-12-15T19:08:36.014Z,97392.47
2022-12-15T19:11:03.100Z,97394.41
2022-12-15T19:13:31.538Z,97391.41
2022-12-15T19:15:58.868Z,97382.88
2022-12-15T19:18:44.847Z,97384.34
2022-12-15T19:21:30.850Z,97387.03
2022-12-15T19:23:57.861Z,97370.69
2022-12-15T19:26:24.930Z,97378.03
2022-12-15T19:28:52.013Z,97376.13
2022-12-15T19:31:19.189Z,97372.00
2022-12-15T19:33:46.344Z,97368.97
2022-12-15T19:36:13.477Z,97360.72
2022-12-15T19:38:40.618Z,97359.00
2022-12-15T19:41:07.826Z,97352.28
2022-12-15T19:43:35.753Z,97353.63
2022-12-15T19:46:03.271Z,97355.13
2022-12-15T19:48:30.408Z,97350.50
2022-12-15T19:50:57.461Z,97356.16
2022-12-15T19:53:25.528Z,97359.22
2022-12-15T19:55:52.779Z,97348.13
2022-12-15T19:58:26.680Z,97349.44
2022-12-15T20:00:54.915Z,97341.34
2022-12-15T20:03:22.287Z,97336.75
2022-12-15T20:05:49.479Z,97334.06
2022-12-15T20:08:16.564Z,97336.66
2022-12-15T20:10:43.714Z,97331.22
2022-12-15T20:13:11.103Z,97324.25
2022-12-15T20:15:38.245Z,97317.38
2022-12-15T20:18:05.368Z,97314.78
2022-12-15T20:20:32.526Z,97313.16
2022-12-15T20:22:59.707Z,97312.47
2022-12-15T20:25:26.950Z,97313.59
2022-12-15T20:27:54.160Z,97315.38
2022-12-15T20:30:21.352Z,97313.72
2022-12-15T20:32:48.455Z,97315.38
2022-12-15T20:35:15.549Z,97309.66
2022-12-15T20:37:42.766Z,97316.50
2022-12-15T20:40:09.903Z,97308.00
2022-12-15T20:42:36.990Z,97308.69
2022-12-15T20:45:04.224Z,97307.88
2022-12-15T20:47:31.322Z,97300.50
2022-12-15T20:49:58.540Z,97298.84
2022-12-15T20:52:25.614Z,97302.59
2022-12-15T20:54:52.700Z,97298.19
2022-12-15T20:57:19.775Z,97289.06
2022-12-15T20:59:46.870Z,97290.84
2022-12-15T21:02:14.469Z,97298.91
2022-12-15T21:04:42.252Z,97301.38
2022-12-15T21:07:09.349Z,97303.44
2022-12-15T21:09:36.421Z,97310.13
2022-12-15T21:12:08.968Z,97305.75
2022-12-15T21:14:36.663Z,97311.94
2022-12-15T21:17:03.882Z,97311.28
2022-12-15T21:19:31.364Z,97310.97
2022-12-15T21:21:58.643Z,97310.16
2022-12-15T21:24:25.730Z,97301.56
2022-12-15T21:26:52.858Z,97299.91
2022-12-15T21:29:20.736Z,97302.44
2022-12-15T21:31:47.799Z,97303.25
2022-12-15T21:34:14.941Z,97307.47
2022-12-15T21:36:42.213Z,97309.41
2022-12-15T21:39:11.768Z,97311.84
2022-12-15T21:41:38.938Z,97307.75
2022-12-15T21:44:06.150Z,97304.75
2022-12-15T21:46:33.359Z,97298.84
2022-12-15T21:49:17.470Z,97307.91
2022-12-15T21:51:44.802Z,97318.31
2022-12-15T21:54:11.949Z,97319.13
2022-12-15T21:56:39.067Z,97321.47
2022-12-15T21:59:06.137Z,97324.88
2022-12-15T22:01:33.264Z,97323.63
2022-12-15T22:04:00.409Z,97320.91
2022-12-15T22:06:27.624Z,97324.75
2022-12-15T22:08:54.749Z,97320.81
2022-12-15T22:11:21.901Z,97321.50
2022-12-15T22:13:48.968Z,97323.13
2022-12-15T22:16:16.152Z,97323.69
2022-12-15T22:18:43.340Z,97319.44
2022-12-15T22:21:10.548Z,97319.28
2022-12-15T22:23:37.641Z,97318.63
2022-12-15T22:26:04.867Z,97314.00
2022-12-15T22:28:32.268Z,97308.91
2022-12-15T22:30:59.675Z,97308.09
2022-12-15T22:33:26.870Z,97317.03
2022-12-15T22:35:54.900Z,97307.59
2022-12-15T22:38:22.090Z,97312.34
2022-12-15T22:40:49.236Z,97305.63
2022-12-15T22:43:17.869Z,97299.06
2022-12-15T22:45:44.999Z,97304.44
2022-12-15T22:48:12.080Z,97304.47
2022-12-15T22:50:39.258Z,97308.28
2022-12-15T22:53:06.450Z,97303.22
2022-12-15T22:55:34.397Z,97302.31
2022-12-15T22:58:01.630Z,97295.31
2022-12-15T23:00:28.831Z,97298.59
2022-12-15T23:02:59.136Z,97294.50
2022-12-15T23:05:26.494Z,97287.94
2022-12-15T23:07:53.678Z,97295.03
2022-12-15T23:10:41.069Z,97291.63
2022-12-15T23:13:08.089Z,97300.50
2022-12-15T23:15:54.754Z,97304.06
2022-12-15T23:18:21.937Z,97305.31
2022-12-15T23:20:49.092Z,97306.94
2022-12-15T23:23:16.164Z,97307.91
2022-12-15T23:25:43.458Z,97314.19
2022-12-15T23:28:10.607Z,97302.97
2022-12-15T23:30:37.740Z,97293.69
2022-12-15T23:33:04.810Z,97293.13
2022-12-15T23:35:31.895Z,97292.19
2022-12-15T23:37:58.968Z,97289.72
2022-12-15T23:40:26.113Z,97290.69
2022-12-15T23:42:53.749Z,97290.97
2022-12-15T23:45:22.407Z,97292.59
2022-12-15T23:47:49.522Z,97289.88
2022-12-15T23:50:16.624Z,97287.41
2022-12-15T23:52:43.727Z,97289.44
2022-12-15T23:55:10.794Z,97284.84
2022-12-15T23:57:37.896Z,97289.22
